Погода Молодиловона неделю

Смоленская область, Россия

23 - 29 мая
  • 23мая
    Сегодня
    +7°
    +22°
    Ясно и безоблачно
    ВремяПогодаТемператураВлажностьДавлениеВетер, м/сВероятность осадков
    00:00Ясно и безоблачно+13°C74 %746 мм3.2 м/с2 %
    03:00Ясно и безоблачно+10°C57 %747 мм3.7 м/с2 %
    06:00Ясно и безоблачно+11°C60 %748 мм4.1 м/с2 %
    09:00Ясно и безоблачно+16°C50 %749 мм4.6 м/с2 %
    12:00Ясно и безоблачно+20°C38 %750 мм5.2 м/с2 %
    15:00Ясно и безоблачно+21°C37 %750 мм4.8 м/с2 %
    18:00Ясно и безоблачно+20°C39 %750 мм5.1 м/с2 %
    21:00Ясно и безоблачно+16°C47 %750 мм4.0 м/с2 %
  • 24мая
    Пятница
    +6°
    +20°
    Ясно и безоблачно
    ВремяПогодаТемператураВлажностьДавлениеВетер, м/сВероятность осадков
    00:00Ясно и безоблачно+11°C54 %751 мм3.7 м/с2 %
    03:00Ясно и безоблачно+8°C64 %752 мм3.1 м/с2 %
    06:00Ясно и безоблачно+9°C60 %753 мм3.4 м/с2 %
    09:00Ясно и безоблачно+15°C45 %754 мм4.0 м/с2 %
    12:00Ясно и безоблачно+18°C34 %753 мм4.5 м/с2 %
    15:00Ясно и безоблачно+19°C31 %753 мм4.2 м/с2 %
    18:00Ясно и безоблачно+19°C36 %752 мм3.7 м/с2 %
    21:00Ясно и безоблачно+14°C52 %752 мм2.7 м/с2 %
  • 25мая
    Суббота
    +7°
    +23°
    Небольшая облачность
    ВремяПогодаТемператураВлажностьДавлениеВетер, м/сВероятность осадков
    00:00Ясно и безоблачно+10°C62 %752 мм2.8 м/с2 %
    03:00Ясно и безоблачно+7°C72 %752 мм2.5 м/с2 %
    06:00Ясно и безоблачно+8°C72 %752 мм2.7 м/с2 %
    09:00Ясно и безоблачно+16°C53 %752 мм2.2 м/с2 %
    12:00Ясно и безоблачно+21°C38 %751 мм2.7 м/с2 %
    15:00Небольшая облачность+22°C36 %750 мм2.6 м/с2 %
    18:00Практически безоблачно+22°C37 %749 мм2.2 м/с2 %
    21:00Ясно и безоблачно+16°C62 %748 мм2.5 м/с2 %
  • 26мая
    Воскресенье
    +10°
    +25°
    Ясно и безоблачно
    ВремяПогодаТемператураВлажностьДавлениеВетер, м/сВероятность осадков
    00:00Практически безоблачно+11°C67 %748 мм2.2 м/с2 %
    03:00Практически безоблачно+9°C73 %748 мм2.2 м/с2 %
    06:00Облачно с прояснениями+10°C73 %748 мм2.1 м/с2 %
    09:00Практически безоблачно+19°C52 %749 мм1.4 м/с2 %
    12:00Облачно с прояснениями+22°C38 %748 мм1.1 м/с2 %
    15:00Ясно и безоблачно+24°C37 %748 мм1.7 м/с6 %
    18:00Практически безоблачно+24°C37 %747 мм1.4 м/с15 %
    21:00Облачно с прояснениями+18°C62 %747 мм2.4 м/с6 %
  • 27мая
    Понедельник
    +12°
    +24°
    Пасмурно, сплошная облачность
    ВремяПогодаТемператураВлажностьДавлениеВетер, м/сВероятность осадков
    00:00Практически безоблачно+13°C72 %747 мм1.8 м/с2 %
    03:00Небольшая облачность+11°C81 %748 мм2.2 м/с2 %
    06:00Ясно и безоблачно+13°C85 %748 мм2.8 м/с2 %
    09:00Ясно и безоблачно+20°C70 %749 мм2.7 м/с2 %
    12:00Ясно и безоблачно+23°C55 %749 мм3.0 м/с21 %
    15:00Пасмурно, сплошная облачность+23°C49 %749 мм2.0 м/с24 %
    18:00Практически безоблачно+22°C59 %748 мм2.3 м/с35 %
    21:00Практически безоблачно+19°C72 %749 мм2.2 м/с8 %
Мы используем cookies
Соглашаюсь